Wetterdaten: Woche 11.07.22 - 17.07.22 (KW28)
Datum Zeit Temp. Aussen Temp. o. S. Temp +5cm Feuchte Auss Luftdruck Regen Sonnenschein Regendauer Solar Windben Empfang
11.07.2022 00:00 18,4 C 17,5 C 14,0 C 79 % 1024,3 hPa 0,0 l/m 0,00 h 0,00 h 0 W/m 9,9 km/h (2 Bft) 98,75 %
11.07.2022 01:00 18,0 C 17,1 C 13,6 C 82 % 1024,1 hPa 0,0 l/m 0,00 h 0,00 h 0 W/m 8,9 km/h (2 Bft) 96,73 %
11.07.2022 02:00 17,6 C 16,4 C 13,1 C 84 % 1023,8 hPa 0,0 l/m 0,00 h 0,00 h 0 W/m 6,5 km/h (2 Bft) 96,30 %
11.07.2022 03:00 16,5 C 15,0 C 11,9 C 87 % 1023,6 hPa 0,0 l/m 0,00 h 0,00 h 0 W/m 1,6 km/h (1 Bft) 97,76 %
11.07.2022 04:00 15,6 C 14,4 C 11,2 C 90 % 1023,5 hPa 0,0 l/m 0,00 h 0,00 h 0 W/m 3,0 km/h (1 Bft) 97,99 %
11.07.2022 05:00 15,5 C 15,0 C 11,7 C 92 % 1023,6 hPa 0,0 l/m 0,00 h 0,00 h 5 W/m 4,3 km/h (1 Bft) 97,29 %
11.07.2022 06:00 16,1 C 15,7 C 12,4 C 92 % 1023,7 hPa 0,0 l/m 0,00 h 0,00 h 21 W/m 4,2 km/h (1 Bft) 95,79 %
11.07.2022 07:00 16,6 C 16,2 C 12,8 C 92 % 1024,0 hPa 0,0 l/m 0,00 h 0,00 h 39 W/m 4,2 km/h (1 Bft) 98,74 %
11.07.2022 08:00 16,9 C 16,8 C 13,0 C 90 % 1024,3 hPa 0,0 l/m 0,00 h 0,00 h 71 W/m 6,1 km/h (2 Bft) 96,87 %
11.07.2022 09:00 17,3 C 17,4 C 13,5 C 89 % 1024,4 hPa 0,0 l/m 0,00 h 0,00 h 142 W/m 8,6 km/h (2 Bft) 97,77 %
11.07.2022 10:00 18,3 C 18,8 C 15,1 C 86 % 1024,4 hPa 0,0 l/m 0,17 h 0,00 h 278 W/m 9,6 km/h (2 Bft) 96,66 %
11.07.2022 11:00 18,8 C 18,6 C 15,0 C 84 % 1024,4 hPa 0,0 l/m 0,00 h 0,00 h 149 W/m 7,2 km/h (2 Bft) 98,77 %
11.07.2022 12:00 19,2 C 19,2 C 15,7 C 82 % 1024,5 hPa 0,0 l/m 0,00 h 0,00 h 228 W/m 10,6 km/h (2 Bft) 97,72 %
11.07.2022 13:00 20,0 C 20,3 C 16,4 C 80 % 1024,6 hPa 0,0 l/m 0,00 h 0,00 h 266 W/m 7,6 km/h (2 Bft) 96,44 %
11.07.2022 14:00 20,4 C 20,9 C 16,8 C 79 % 1024,5 hPa 0,0 l/m 0,00 h 0,00 h 292 W/m 9,1 km/h (2 Bft) 98,93 %
11.07.2022 15:00 20,8 C 21,2 C 17,1 C 79 % 1024,4 hPa 0,0 l/m 0,17 h 0,00 h 263 W/m 6,6 km/h (2 Bft) 97,86 %
11.07.2022 16:00 21,2 C 21,4 C 17,4 C 77 % 1024,4 hPa 0,0 l/m 0,00 h 0,00 h 226 W/m 7,0 km/h (2 Bft) 96,11 %
11.07.2022 17:00 21,3 C 22,1 C 17,3 C 76 % 1024,3 hPa 0,0 l/m 0,23 h 0,00 h 235 W/m 6,3 km/h (2 Bft) 98,72 %
11.07.2022 18:00 22,3 C 24,7 C 18,1 C 74 % 1024,1 hPa 0,0 l/m 0,47 h 0,00 h 275 W/m 5,2 km/h (1 Bft) 97,66 %
11.07.2022 19:00 23,0 C 24,5 C 18,4 C 71 % 1023,8 hPa 0,0 l/m 0,93 h 0,00 h 304 W/m 7,3 km/h (2 Bft) 96,90 %
11.07.2022 20:00 22,3 C 21,5 C 17,2 C 72 % 1023,7 hPa 0,0 l/m 0,00 h 0,00 h 51 W/m 3,1 km/h (1 Bft) 97,93 %
11.07.2022 21:00 21,0 C 18,9 C 15,3 C 78 % 1023,9 hPa 0,0 l/m 0,00 h 0,00 h 11 W/m 1,0 km/h (0 Bft) 97,58 %
11.07.2022 22:00 19,3 C 17,2 C 13,8 C 84 % 1024,2 hPa 0,0 l/m 0,00 h 0,00 h 0 W/m 0,0 km/h (0 Bft) 97,35 %
11.07.2022 23:00 17,9 C 16,3 C 12,9 C 88 % 1024,5 hPa 0,0 l/m 0,00 h 0,00 h 0 W/m 0,0 km/h (0 Bft) 97,80 %
12.07.2022 00:00 16,9 C 15,7 C 12,3 C 90 % 1024,6 hPa 0,0 l/m 0,00 h 0,00 h 0 W/m 0,0 km/h (0 Bft) 96,16 %
12.07.2022 01:00 16,2 C 14,8 C 11,6 C 92 % 1024,7 hPa 0,0 l/m 0,00 h 0,00 h 0 W/m 0,0 km/h (0 Bft) 99,28 %
12.07.2022 02:00 15,4 C 14,1 C 11,0 C 93 % 1024,5 hPa 0,0 l/m 0,00 h 0,00 h 0 W/m 0,0 km/h (0 Bft) 98,08 %
12.07.2022 03:00 14,6 C 13,5 C 10,6 C 93 % 1024,2 hPa 0,0 l/m 0,00 h 0,00 h 0 W/m 0,0 km/h (0 Bft) 95,97 %
12.07.2022 04:00 14,0 C 13,0 C 10,0 C 94 % 1024,5 hPa 0,0 l/m 0,00 h 0,00 h 0 W/m 0,0 km/h (0 Bft) 98,58 %
12.07.2022 05:00 13,6 C 12,8 C 9,8 C 95 % 1024,5 hPa 0,0 l/m 0,00 h 0,00 h 8 W/m 0,0 km/h (0 Bft) 96,94 %
12.07.2022 06:00 13,8 C 13,1 C 10,2 C 96 % 1024,8 hPa 0,0 l/m 0,00 h 0,00 h 22 W/m 0,3 km/h (0 Bft) 96,94 %
12.07.2022 07:00 14,5 C 14,4 C 11,4 C 97 % 1024,9 hPa 0,0 l/m 0,07 h 0,00 h 46 W/m 3,5 km/h (1 Bft) 96,07 %
12.07.2022 08:00 16,8 C 20,3 C 14,7 C 95 % 1025,4 hPa 0,0 l/m 0,93 h 0,00 h 367 W/m 3,1 km/h (1 Bft) 99,42 %
12.07.2022 09:00 21,1 C 27,0 C 20,7 C 80 % 1025,7 hPa 0,0 l/m 1,00 h 0,00 h 543 W/m 5,1 km/h (1 Bft) 96,90 %
12.07.2022 10:00 23,3 C 26,2 C 22,4 C 72 % 1025,6 hPa 0,0 l/m 1,00 h 0,00 h 674 W/m 7,4 km/h (2 Bft) 99,13 %
12.07.2022 11:00 24,5 C 27,0 C 23,0 C 66 % 1025,4 hPa 0,0 l/m 1,00 h 0,00 h 780 W/m 10,2 km/h (2 Bft) 96,67 %
12.07.2022 12:00 26,1 C 28,3 C 27,3 C 60 % 1025,3 hPa 0,0 l/m 1,00 h 0,00 h 887 W/m 8,9 km/h (2 Bft) 97,81 %
12.07.2022 13:00 27,4 C 29,1 C 26,3 C 55 % 1025,0 hPa 0,0 l/m 1,00 h 0,00 h 914 W/m 8,5 km/h (2 Bft) 98,09 %
12.07.2022 14:00 28,8 C 30,9 C 25,6 C 52 % 1024,5 hPa 0,0 l/m 1,00 h 0,00 h 817 W/m 10,7 km/h (2 Bft) 97,60 %
12.07.2022 15:00 29,2 C 31,4 C 24,5 C 50 % 1024,2 hPa 0,0 l/m 1,00 h 0,00 h 757 W/m 10,6 km/h (2 Bft) 84,19 %
12.07.2022 16:00 29,6 C 32,0 C 25,0 C 49 % 1024,0 hPa 0,0 l/m 1,00 h 0,00 h 555 W/m 8,8 km/h (2 Bft) 94,43 %
12.07.2022 17:00 29,6 C 32,3 C 25,0 C 48 % 1023,6 hPa 0,0 l/m 1,00 h 0,00 h 518 W/m 8,7 km/h (2 Bft) 96,45 %
12.07.2022 18:00 29,2 C 28,9 C 23,9 C 47 % 1023,2 hPa 0,0 l/m 0,10 h 0,00 h 192 W/m 4,9 km/h (1 Bft) 97,74 %
12.07.2022 19:00 28,2 C 27,0 C 22,7 C 51 % 1023,0 hPa 0,0 l/m 0,00 h 0,00 h 106 W/m 2,7 km/h (1 Bft) 98,52 %
12.07.2022 20:00 27,3 C 25,6 C 21,4 C 57 % 1023,1 hPa 0,0 l/m 0,00 h 0,00 h 38 W/m 1,2 km/h (1 Bft) 95,49 %
12.07.2022 21:00 26,0 C 23,9 C 19,7 C 64 % 1023,0 hPa 0,0 l/m 0,00 h 0,00 h 9 W/m 0,1 km/h (0 Bft) 98,93 %
12.07.2022 22:00 24,4 C 22,3 C 18,3 C 69 % 1023,0 hPa 0,0 l/m 0,00 h 0,00 h 0 W/m 0,1 km/h (0 Bft) 97,50 %
12.07.2022 23:00 22,9 C 21,2 C 17,2 C 75 % 1022,9 hPa 0,0 l/m 0,00 h 0,00 h 0 W/m 0,3 km/h (0 Bft) 96,37 %
13.07.2022 00:00 22,1 C 20,8 C 16,9 C 77 % 1022,7 hPa 0,0 l/m 0,00 h 0,00 h 0 W/m 0,0 km/h (0 Bft) 98,65 %
13.07.2022 01:00 21,5 C 20,4 C 17,0 C 79 % 1022,2 hPa 0,0 l/m 0,00 h 0,00 h 0 W/m 0,7 km/h (0 Bft) 97,72 %
13.07.2022 02:00 21,4 C 20,4 C 16,7 C 78 % 1021,9 hPa 0,0 l/m 0,00 h 0,00 h 0 W/m 1,0 km/h (0 Bft) 96,79 %
13.07.2022 03:00 20,8 C 19,8 C 16,3 C 81 % 1021,4 hPa 0,0 l/m 0,00 h 0,07 h 0 W/m 1,5 km/h (1 Bft) 99,71 %
13.07.2022 04:00 20,6 C 19,9 C 16,4 C 79 % 1020,8 hPa 0,0 l/m 0,00 h 0,03 h 0 W/m 1,7 km/h (1 Bft) 95,74 %
13.07.2022 05:00 20,7 C 20,0 C 16,7 C 77 % 1020,6 hPa 0,0 l/m 0,00 h 0,00 h 8 W/m 3,9 km/h (1 Bft) 98,37 %
13.07.2022 06:00 20,7 C 20,0 C 16,7 C 77 % 1020,4 hPa 0,0 l/m 0,00 h 0,00 h 30 W/m 3,7 km/h (1 Bft) 98,29 %
13.07.2022 07:00 21,0 C 20,6 C 17,1 C 75 % 1020,3 hPa 0,0 l/m 0,00 h 0,00 h 93 W/m 5,3 km/h (1 Bft) 96,58 %
13.07.2022 08:00 22,1 C 22,1 C 18,3 C 73 % 1020,2 hPa 0,0 l/m 0,00 h 0,00 h 154 W/m 6,8 km/h (2 Bft) 97,71 %
13.07.2022 09:00 24,2 C 24,8 C 20,6 C 67 % 1020,0 hPa 0,0 l/m 0,33 h 0,00 h 259 W/m 9,8 km/h (2 Bft) 98,98 %
13.07.2022 10:00 26,7 C 27,0 C 23,2 C 55 % 1019,9 hPa 0,0 l/m 0,77 h 0,00 h 387 W/m 13,7 km/h (3 Bft) 96,46 %
13.07.2022 11:00 27,4 C 27,3 C 23,5 C 56 % 1019,9 hPa 0,0 l/m 0,40 h 0,00 h 350 W/m 12,6 km/h (3 Bft) 98,07 %
13.07.2022 12:00 27,5 C 27,5 C 23,6 C 57 % 1020,0 hPa 0,0 l/m 0,47 h 0,07 h 382 W/m 12,7 km/h (3 Bft) 96,53 %
13.07.2022 13:00 28,5 C 29,0 C 25,4 C 56 % 1019,9 hPa 0,0 l/m 1,00 h 0,00 h 583 W/m 15,9 km/h (3 Bft) 98,80 %
13.07.2022 14:00 29,8 C 30,8 C 26,3 C 54 % 1019,6 hPa 0,0 l/m 0,93 h 0,00 h 652 W/m 18,2 km/h (3 Bft) 97,04 %
13.07.2022 15:00 29,9 C 30,4 C 25,8 C 52 % 1019,5 hPa 0,0 l/m 0,93 h 0,00 h 516 W/m 20,0 km/h (4 Bft) 97,99 %
13.07.2022 16:00 29,3 C 30,9 C 25,1 C 51 % 1019,6 hPa 0,0 l/m 0,90 h 0,00 h 556 W/m 26,5 km/h (4 Bft) 97,25 %
13.07.2022 17:00 28,5 C 29,1 C 24,3 C 52 % 1019,7 hPa 0,0 l/m 0,33 h 0,00 h 325 W/m 23,0 km/h (4 Bft) 97,22 %
13.07.2022 18:00 26,4 C 25,6 C 21,8 C 58 % 1019,8 hPa 0,0 l/m 0,00 h 0,20 h 131 W/m 16,6 km/h (3 Bft) 97,97 %
13.07.2022 19:00 24,9 C 24,4 C 20,4 C 66 % 1019,6 hPa 0,0 l/m 0,10 h 0,00 h 111 W/m 4,7 km/h (1 Bft) 99,00 %
13.07.2022 20:00 25,3 C 24,4 C 20,2 C 64 % 1019,4 hPa 0,0 l/m 0,10 h 0,00 h 51 W/m 4,6 km/h (1 Bft) 94,95 %
13.07.2022 21:00 24,3 C 22,8 C 18,9 C 68 % 1019,6 hPa 0,0 l/m 0,17 h 0,00 h 17 W/m 5,0 km/h (1 Bft) 99,36 %
13.07.2022 22:00 23,0 C 22,0 C 18,3 C 70 % 1020,3 hPa 0,0 l/m 0,00 h 0,00 h 0 W/m 7,9 km/h (2 Bft) 97,72 %
13.07.2022 23:00 21,7 C 20,4 C 17,0 C 74 % 1020,7 hPa 0,0 l/m 0,00 h 0,00 h 0 W/m 9,1 km/h (2 Bft) 96,08 %
14.07.2022 00:00 20,0 C 19,0 C 15,6 C 79 % 1020,9 hPa 0,0 l/m 0,00 h 0,00 h 0 W/m 11,7 km/h (2 Bft) 98,88 %
14.07.2022 01:00 18,9 C 17,9 C 14,6 C 83 % 1020,7 hPa 0,0 l/m 0,00 h 0,00 h 0 W/m 8,7 km/h (2 Bft) 97,36 %
14.07.2022 02:00 18,1 C 17,2 C 14,0 C 85 % 1020,6 hPa 0,0 l/m 0,00 h 0,00 h 0 W/m 6,9 km/h (2 Bft) 95,64 %
14.07.2022 03:00 17,4 C 16,3 C 13,1 C 87 % 1020,6 hPa 0,0 l/m 0,00 h 0,00 h 0 W/m 4,9 km/h (1 Bft) 98,50 %
14.07.2022 04:00 16,8 C 16,0 C 12,8 C 89 % 1020,4 hPa 0,0 l/m 0,00 h 0,00 h 0 W/m 4,9 km/h (1 Bft) 97,86 %
14.07.2022 05:00 16,5 C 15,7 C 12,8 C 90 % 1020,3 hPa 0,0 l/m 0,00 h 0,00 h 5 W/m 5,6 km/h (1 Bft) 96,24 %
14.07.2022 06:00 16,3 C 15,6 C 12,6 C 90 % 1020,3 hPa 0,0 l/m 0,00 h 0,00 h 18 W/m 5,7 km/h (1 Bft) 99,79 %
14.07.2022 07:00 16,4 C 16,3 C 12,7 C 89 % 1020,4 hPa 0,0 l/m 0,10 h 0,00 h 87 W/m 8,0 km/h (2 Bft) 96,37 %
14.07.2022 08:00 17,9 C 18,6 C 14,3 C 85 % 1020,5 hPa 0,0 l/m 0,50 h 0,00 h 226 W/m 9,1 km/h (2 Bft) 98,01 %
14.07.2022 09:00 19,2 C 21,1 C 16,5 C 79 % 1020,4 hPa 0,0 l/m 0,73 h 0,00 h 350 W/m 10,7 km/h (2 Bft) 98,50 %
14.07.2022 10:00 20,5 C 23,0 C 18,4 C 70 % 1020,0 hPa 0,0 l/m 0,60 h 0,00 h 473 W/m 9,7 km/h (2 Bft) 98,05 %
14.07.2022 11:00 21,8 C 24,1 C 19,8 C 60 % 1019,8 hPa 0,0 l/m 0,87 h 0,00 h 638 W/m 11,4 km/h (2 Bft) 96,37 %
14.07.2022 12:00 23,4 C 25,9 C 24,8 C 55 % 1019,7 hPa 0,0 l/m 1,00 h 0,00 h 885 W/m 13,9 km/h (3 Bft) 98,78 %
14.07.2022 13:00 24,4 C 25,9 C 23,4 C 51 % 1019,6 hPa 0,0 l/m 1,00 h 0,00 h 913 W/m 19,0 km/h (3 Bft) 97,23 %
14.07.2022 14:00 25,1 C 27,5 C 22,2 C 49 % 1019,4 hPa 0,0 l/m 1,00 h 0,00 h 868 W/m 19,1 km/h (3 Bft) 98,77 %
14.07.2022 15:00 25,3 C 26,6 C 21,1 C 50 % 1019,4 hPa 0,0 l/m 0,53 h 0,00 h 535 W/m 16,3 km/h (3 Bft) 95,52 %
14.07.2022 16:00 24,9 C 27,0 C 20,8 C 52 % 1019,7 hPa 0,0 l/m 0,53 h 0,00 h 518 W/m 16,7 km/h (3 Bft) 99,43 %
14.07.2022 17:00 25,7 C 29,0 C 21,8 C 48 % 1019,7 hPa 0,0 l/m 0,80 h 0,00 h 579 W/m 19,1 km/h (3 Bft) 97,44 %
14.07.2022 18:00 24,8 C 26,9 C 20,9 C 49 % 1019,4 hPa 0,0 l/m 0,70 h 0,00 h 313 W/m 16,6 km/h (3 Bft) 96,71 %
14.07.2022 19:00 24,0 C 24,6 C 19,6 C 52 % 1019,5 hPa 0,0 l/m 0,43 h 0,00 h 169 W/m 16,9 km/h (3 Bft) 98,36 %
14.07.2022 20:00 22,3 C 21,4 C 18,0 C 58 % 1019,9 hPa 0,0 l/m 0,07 h 0,00 h 56 W/m 16,2 km/h (3 Bft) 98,08 %
14.07.2022 21:00 20,8 C 19,6 C 16,4 C 63 % 1020,5 hPa 0,0 l/m 0,00 h 0,00 h 14 W/m 10,5 km/h (2 Bft) 96,09 %
14.07.2022 22:00 19,3 C 18,2 C 14,9 C 66 % 1021,0 hPa 0,0 l/m 0,00 h 0,00 h 0 W/m 4,7 km/h (1 Bft) 99,50 %
14.07.2022 23:00 18,1 C 16,9 C 13,8 C 70 % 1021,4 hPa 0,0 l/m 0,00 h 0,00 h 0 W/m 6,5 km/h (2 Bft) 96,30 %
15.07.2022 00:00 17,0 C 16,0 C 12,8 C 76 % 1021,7 hPa 0,0 l/m 0,00 h 0,00 h 0 W/m 7,5 km/h (2 Bft) 97,19 %
15.07.2022 01:00 16,0 C 15,0 C 11,9 C 81 % 1022,1 hPa 0,0 l/m 0,00 h 0,00 h 0 W/m 7,2 km/h (2 Bft) 99,07 %
15.07.2022 02:00 15,4 C 14,4 C 11,2 C 84 % 1022,2 hPa 0,0 l/m 0,00 h 0,00 h 0 W/m 3,3 km/h (1 Bft) 96,16 %
15.07.2022 03:00 14,8 C 14,1 C 11,1 C 85 % 1022,3 hPa 0,0 l/m 0,00 h 0,00 h 0 W/m 3,4 km/h (1 Bft) 97,59 %
15.07.2022 04:00 14,4 C 13,3 C 10,3 C 86 % 1022,4 hPa 0,0 l/m 0,00 h 0,00 h 0 W/m 2,1 km/h (1 Bft) 98,50 %
15.07.2022 05:00 13,4 C 12,3 C 9,4 C 88 % 1022,8 hPa 0,0 l/m 0,00 h 0,00 h 10 W/m 2,2 km/h (1 Bft) 97,79 %
15.07.2022 06:00 13,1 C 12,6 C 9,5 C 90 % 1023,3 hPa 0,0 l/m 0,00 h 0,00 h 45 W/m 4,3 km/h (1 Bft) 95,21 %
15.07.2022 07:00 14,1 C 14,2 C 10,9 C 88 % 1023,5 hPa 0,0 l/m 0,00 h 0,00 h 96 W/m 5,6 km/h (1 Bft) 96,87 %
15.07.2022 08:00 16,0 C 18,4 C 12,9 C 82 % 1023,5 hPa 0,0 l/m 0,93 h 0,00 h 348 W/m 7,0 km/h (2 Bft) 98,23 %
15.07.2022 09:00 17,9 C 21,1 C 15,7 C 72 % 1023,6 hPa 0,0 l/m 0,63 h 0,00 h 365 W/m 10,0 km/h (2 Bft) 97,42 %
15.07.2022 10:00 18,6 C 20,0 C 16,2 C 66 % 1023,6 hPa 0,0 l/m 0,33 h 0,00 h 352 W/m 8,0 km/h (2 Bft) 99,15 %
15.07.2022 11:00 19,7 C 21,7 C 17,4 C 61 % 1023,5 hPa 0,0 l/m 0,70 h 0,00 h 601 W/m 11,0 km/h (2 Bft) 97,79 %
15.07.2022 12:00 20,8 C 21,9 C 18,8 C 58 % 1023,4 hPa 0,0 l/m 0,58 h 0,00 h 467 W/m 13,3 km/h (3 Bft) 96,65 %
15.07.2022 13:00 21,8 C 23,2 C 19,6 C 55 % 1022,9 hPa 0,0 l/m 0,73 h 0,00 h 826 W/m 12,8 km/h (3 Bft) 98,50 %
15.07.2022 14:00 21,8 C 22,8 C 18,3 C 54 % 1022,7 hPa 0,0 l/m 0,37 h 0,00 h 478 W/m 11,1 km/h (2 Bft) 97,22 %
15.07.2022 15:00 22,2 C 23,9 C 18,5 C 54 % 1022,6 hPa 0,0 l/m 0,43 h 0,00 h 568 W/m 10,1 km/h (2 Bft) 99,01 %
15.07.2022 16:00 22,9 C 24,7 C 19,1 C 52 % 1022,3 hPa 0,0 l/m 0,53 h 0,00 h 551 W/m 12,3 km/h (3 Bft) 95,87 %
15.07.2022 17:00 22,9 C 26,7 C 19,3 C 51 % 1022,1 hPa 0,0 l/m 0,97 h 0,00 h 554 W/m 12,1 km/h (2 Bft) 99,00 %
15.07.2022 18:00 23,5 C 27,0 C 19,6 C 51 % 1021,7 hPa 0,0 l/m 0,70 h 0,00 h 388 W/m 10,7 km/h (2 Bft) 98,51 %
15.07.2022 19:00 22,6 C 23,4 C 18,2 C 52 % 1021,5 hPa 0,0 l/m 0,33 h 0,00 h 158 W/m 8,7 km/h (2 Bft) 95,80 %
15.07.2022 20:00 21,5 C 20,7 C 17,2 C 56 % 1021,4 hPa 0,0 l/m 0,13 h 0,00 h 61 W/m 5,9 km/h (2 Bft) 98,01 %
15.07.2022 21:00 20,6 C 19,2 C 15,8 C 61 % 1021,5 hPa 0,0 l/m 0,00 h 0,00 h 15 W/m 3,5 km/h (1 Bft) 98,43 %
15.07.2022 22:00 19,0 C 17,1 C 13,6 C 68 % 1021,6 hPa 0,0 l/m 0,00 h 0,00 h 0 W/m 0,0 km/h (0 Bft) 95,09 %
15.07.2022 23:00 17,6 C 15,9 C 12,5 C 74 % 1021,6 hPa 0,0 l/m 0,00 h 0,00 h 0 W/m 0,2 km/h (0 Bft) 99,02 %
16.07.2022 00:00 16,8 C 15,9 C 12,5 C 75 % 1021,6 hPa 0,0 l/m 0,00 h 0,00 h 0 W/m 0,3 km/h (0 Bft) 97,84 %
16.07.2022 01:00 17,0 C 16,1 C 12,8 C 76 % 1021,6 hPa 0,0 l/m 0,00 h 0,00 h 0 W/m 0,3 km/h (0 Bft) 96,51 %
16.07.2022 02:00 16,7 C 15,4 C 12,1 C 77 % 1021,6 hPa 0,0 l/m 0,00 h 0,00 h 0 W/m 0,3 km/h (0 Bft) 99,00 %
16.07.2022 03:00 15,9 C 14,7 C 11,5 C 80 % 1021,5 hPa 0,0 l/m 0,00 h 0,00 h 0 W/m 0,5 km/h (0 Bft) 97,36 %
16.07.2022 04:00 16,0 C 15,4 C 12,2 C 80 % 1021,4 hPa 0,0 l/m 0,00 h 0,00 h 0 W/m 2,1 km/h (1 Bft) 97,86 %
16.07.2022 05:00 16,2 C 15,6 C 12,2 C 78 % 1021,4 hPa 0,0 l/m 0,00 h 0,00 h 2 W/m 2,9 km/h (1 Bft) 96,44 %
16.07.2022 06:00 16,4 C 15,8 C 12,5 C 76 % 1021,6 hPa 0,0 l/m 0,00 h 0,00 h 26 W/m 4,6 km/h (1 Bft) 98,53 %
16.07.2022 07:00 16,8 C 16,2 C 12,8 C 74 % 1021,9 hPa 0,0 l/m 0,00 h 0,00 h 66 W/m 6,3 km/h (2 Bft) 97,65 %
16.07.2022 08:00 18,0 C 19,1 C 14,5 C 77 % 1022,4 hPa 0,0 l/m 0,77 h 0,00 h 276 W/m 13,4 km/h (3 Bft) 96,65 %
16.07.2022 09:00 19,6 C 21,9 C 16,8 C 74 % 1022,9 hPa 0,0 l/m 0,87 h 0,00 h 390 W/m 12,8 km/h (3 Bft) 98,36 %
16.07.2022 10:00 20,4 C 21,9 C 17,8 C 63 % 1023,3 hPa 0,0 l/m 0,87 h 0,00 h 503 W/m 17,2 km/h (3 Bft) 97,65 %
16.07.2022 11:00 21,3 C 23,0 C 19,0 C 61 % 1023,8 hPa 0,0 l/m 0,70 h 0,00 h 614 W/m 17,4 km/h (3 Bft) 98,72 %
16.07.2022 12:00 22,0 C 24,0 C 21,8 C 59 % 1024,1 hPa 0,0 l/m 0,70 h 0,00 h 766 W/m 17,0 km/h (3 Bft) 95,77 %
16.07.2022 13:00 22,9 C 24,3 C 20,8 C 55 % 1024,4 hPa 0,0 l/m 0,83 h 0,00 h 855 W/m 19,3 km/h (3 Bft) 98,08 %
16.07.2022 14:00 23,1 C 25,2 C 19,8 C 52 % 1024,6 hPa 0,0 l/m 0,83 h 0,00 h 839 W/m 19,7 km/h (3 Bft) 99,07 %
16.07.2022 15:00 23,9 C 26,4 C 19,5 C 48 % 1024,8 hPa 0,0 l/m 1,00 h 0,00 h 869 W/m 19,4 km/h (3 Bft) 96,30 %
16.07.2022 16:00 24,2 C 28,6 C 20,1 C 48 % 1024,7 hPa 0,0 l/m 1,00 h 0,00 h 764 W/m 19,2 km/h (3 Bft) 97,58 %
16.07.2022 17:00 24,5 C 29,8 C 20,7 C 47 % 1024,8 hPa 0,0 l/m 1,00 h 0,00 h 621 W/m 15,8 km/h (3 Bft) 97,65 %
16.07.2022 18:00 24,5 C 29,5 C 20,7 C 47 % 1024,8 hPa 0,0 l/m 1,00 h 0,00 h 445 W/m 14,7 km/h (3 Bft) 98,53 %
16.07.2022 19:00 23,7 C 24,8 C 19,1 C 48 % 1025,0 hPa 0,0 l/m 0,90 h 0,00 h 247 W/m 14,3 km/h (3 Bft) 95,92 %
16.07.2022 20:00 22,0 C 21,1 C 17,5 C 51 % 1025,3 hPa 0,0 l/m 0,00 h 0,00 h 36 W/m 9,8 km/h (2 Bft) 97,56 %
16.07.2022 21:00 20,7 C 19,5 C 16,1 C 55 % 1025,8 hPa 0,0 l/m 0,00 h 0,00 h 11 W/m 4,6 km/h (1 Bft) 98,25 %
16.07.2022 22:00 19,3 C 17,8 C 14,6 C 60 % 1026,2 hPa 0,0 l/m 0,00 h 0,00 h 0 W/m 1,9 km/h (1 Bft) 97,13 %
16.07.2022 23:00 17,9 C 16,7 C 13,4 C 66 % 1026,5 hPa 0,0 l/m 0,00 h 0,00 h 0 W/m 2,8 km/h (1 Bft) 96,83 %
17.07.2022 00:00 17,1 C 16,1 C 12,8 C 69 % 1026,9 hPa 0,0 l/m 0,00 h 0,00 h 0 W/m 2,8 km/h (1 Bft) 96,24 %
17.07.2022 01:00 15,9 C 14,7 C 11,4 C 74 % 1027,1 hPa 0,0 l/m 0,00 h 0,00 h 0 W/m 2,7 km/h (1 Bft) 99,45 %
17.07.2022 02:00 14,6 C 13,5 C 10,5 C 78 % 1027,0 hPa 0,0 l/m 0,00 h 0,00 h 0 W/m 0,9 km/h (0 Bft) 95,60 %
17.07.2022 03:00 13,7 C 12,5 C 9,6 C 81 % 1026,9 hPa 0,0 l/m 0,00 h 0,00 h 0 W/m 0,3 km/h (0 Bft) 97,45 %
17.07.2022 04:00 12,8 C 11,8 C 9,0 C 84 % 1026,7 hPa 0,0 l/m 0,00 h 0,00 h 0 W/m 0,2 km/h (0 Bft) 97,13 %
17.07.2022 05:00 12,1 C 11,2 C 8,3 C 86 % 1027,0 hPa 0,0 l/m 0,00 h 0,00 h 6 W/m 1,2 km/h (1 Bft) 97,79 %
17.07.2022 06:00 11,9 C 11,4 C 8,5 C 88 % 1027,0 hPa 0,0 l/m 0,00 h 0,00 h 18 W/m 0,4 km/h (0 Bft) 97,10 %
17.07.2022 07:00 12,8 C 13,1 C 9,9 C 89 % 1027,3 hPa 0,0 l/m 0,00 h 0,00 h 41 W/m 2,0 km/h (1 Bft) 97,12 %
17.07.2022 08:00 16,0 C 19,1 C 13,2 C 79 % 1027,3 hPa 0,0 l/m 0,93 h 0,00 h 348 W/m 3,4 km/h (1 Bft) 98,72 %
17.07.2022 09:00 19,8 C 25,5 C 18,9 C 65 % 1027,4 hPa 0,0 l/m 1,00 h 0,00 h 533 W/m 5,8 km/h (2 Bft) 97,41 %
17.07.2022 10:00 21,5 C 24,0 C 19,1 C 59 % 1027,7 hPa 0,0 l/m 1,00 h 0,00 h 686 W/m 7,8 km/h (2 Bft) 97,37 %
17.07.2022 11:00 22,8 C 25,6 C 21,1 C 54 % 1027,6 hPa 0,0 l/m 1,00 h 0,00 h 802 W/m 9,1 km/h (2 Bft) 97,35 %
17.07.2022 12:00 23,9 C 25,8 C 24,6 C 52 % 1027,6 hPa 0,0 l/m 1,00 h 0,00 h 850 W/m 10,0 km/h (2 Bft) 97,50 %
17.07.2022 13:00 25,2 C 26,7 C 22,6 C 48 % 1027,4 hPa 0,0 l/m 1,00 h 0,00 h 873 W/m 9,6 km/h (2 Bft) 99,00 %
17.07.2022 14:00 26,1 C 28,4 C 22,4 C 44 % 1027,0 hPa 0,0 l/m 1,00 h 0,00 h 893 W/m 10,6 km/h (2 Bft) 95,80 %
17.07.2022 15:00 27,0 C 29,5 C 22,1 C 43 % 1026,7 hPa 0,0 l/m 1,00 h 0,00 h 880 W/m 13,2 km/h (3 Bft) 98,86 %
17.07.2022 16:00 27,3 C 31,9 C 22,8 C 41 % 1026,2 hPa 0,0 l/m 1,00 h 0,00 h 674 W/m 9,2 km/h (2 Bft) 98,51 %
17.07.2022 17:00 28,3 C 33,1 C 24,0 C 38 % 1025,7 hPa 0,0 l/m 1,00 h 0,00 h 583 W/m 8,8 km/h (2 Bft) 95,94 %
17.07.2022 18:00 28,3 C 31,7 C 23,5 C 38 % 1025,3 hPa 0,0 l/m 1,00 h 0,00 h 348 W/m 7,3 km/h (2 Bft) 98,43 %
17.07.2022 19:00 27,0 C 27,2 C 21,0 C 45 % 1024,6 hPa 0,0 l/m 0,80 h 0,00 h 221 W/m 4,8 km/h (1 Bft) 98,44 %
17.07.2022 20:00 25,7 C 23,7 C 19,2 C 49 % 1024,7 hPa 0,0 l/m 0,00 h 0,00 h 48 W/m 2,6 km/h (1 Bft) 96,72 %
17.07.2022 21:00 24,0 C 21,9 C 17,4 C 53 % 1024,9 hPa 0,0 l/m 0,00 h 0,00 h 13 W/m 0,7 km/h (0 Bft) 98,64 %
17.07.2022 22:00 22,4 C 20,3 C 15,9 C 56 % 1025,0 hPa 0,0 l/m 0,00 h 0,00 h 0 W/m 0,4 km/h (0 Bft) 96,62 %
17.07.2022 23:00 20,6 C 18,6 C 14,7 C 64 % 1024,9 hPa 0,0 l/m 0,00 h 0,00 h 0 W/m 0,2 km/h (0 Bft) 97,93 %
Min-Datum _ 17.07.22 17.07.22 17.07.22 17.07.22 13.07.22 - - - - 11.07.22 15.07.22
_ Min-Zeit 05:44 05:14 05:32 17:58 20:14 - - - - 02:54 06:12
Minimum _ 11,8 C 11,1 C 7,8 C 35 % 1019,3 hPa - - - - 0,0 km/h (0 Bft) 53,33 %
Max-Datum _ 13.07.22 12.07.22 12.07.22 12.07.22 17.07.22 11.07.22 13.07.22 13.07.22 15.07.22 13.07.22 11.07.22
_ Max-Zeit 14:50 17:14 12:46 07:26 10:16 00:00 12:08 03:28 14:04 16:34 00:00
Maximum _ 30,6 C 35,0 C 32,2 C 97 % 1027,8 hPa 0,0 l/m 0,07 h 0,03 h 1157 W/m 45,1 km/h
N-NW (6 Bft)
100,00 %
Durchschnitt _ 20,8 C 21,2 C 17,0 C 69 % 1023,1 hPa #0,0 l/m #56:57 h #22 min. 356 W/m 7,5 km/h (2 Bft) 97,47 %
© 2022 W. Hausmann